ACN1212 SBPL-SBRF
Flight info
| Callsign | ACN1212 |
|---|---|
| Flight time | 2h 23m |
| Altitude | 7000 |
| Route | VUGID DCT MUDAR |
| Aircraft | C208/L-SDFGR/C |
Departure
| Time | 2026-04-24 19:35 |
|---|---|
| Airport | Senador Nilo Coelho Airport (SBPL) |
Arrival
| Time | 2026-04-24 21:58 |
|---|---|
| Airport | Recife/Guararapes - Gilberto Freyre International Airport (SBRF) |
| Time | Latitude | Longitude | Altitude | Speed | Heading |
|---|---|---|---|---|---|
| 2026-04-24 19:24 | -9.36600 | -40.56468 | 1270 ft | 0 kts | 288° |
| 2026-04-24 19:28 | -9.36598 | -40.56474 | 1271 ft | 1 kts | 289° |
| 2026-04-24 19:28 | -9.36578 | -40.56497 | 1270 ft | 7 kts | 319° |
| 2026-04-24 19:29 | -9.36513 | -40.56591 | 1270 ft | 7 kts | 352° |
| 2026-04-24 19:29 | -9.36465 | -40.56579 | 1270 ft | 2 kts | 18° |
| 2026-04-24 19:29 | -9.36459 | -40.56577 | 1270 ft | 1 kts | 19° |
| 2026-04-24 19:30 | -9.36443 | -40.56572 | 1270 ft | 3 kts | 21° |
| 2026-04-24 19:30 | -9.36416 | -40.56561 | 1271 ft | 6 kts | 19° |
| 2026-04-24 19:30 | -9.36355 | -40.56598 | 1271 ft | 16 kts | 290° |
| 2026-04-24 19:30 | -9.36312 | -40.56725 | 1269 ft | 21 kts | 290° |
| 2026-04-24 19:31 | -9.36257 | -40.56882 | 1268 ft | 24 kts | 288° |
| 2026-04-24 19:31 | -9.36205 | -40.57040 | 1267 ft | 23 kts | 290° |
| 2026-04-24 19:31 | -9.36152 | -40.57191 | 1264 ft | 21 kts | 289° |
| 2026-04-24 19:31 | -9.36104 | -40.57332 | 1263 ft | 20 kts | 288° |
| 2026-04-24 19:32 | -9.36063 | -40.57465 | 1262 ft | 19 kts | 290° |
| 2026-04-24 19:32 | -9.36018 | -40.57592 | 1261 ft | 18 kts | 290° |
| 2026-04-24 19:32 | -9.35977 | -40.57713 | 1261 ft | 17 kts | 289° |
| 2026-04-24 19:32 | -9.35938 | -40.57829 | 1261 ft | 17 kts | 289° |
| 2026-04-24 19:33 | -9.35899 | -40.57939 | 1261 ft | 16 kts | 289° |
| 2026-04-24 19:33 | -9.35896 | -40.58042 | 1261 ft | 11 kts | 251° |
| 2026-04-24 19:33 | -9.35856 | -40.58080 | 1261 ft | 10 kts | 48° |
| 2026-04-24 19:33 | -9.35868 | -40.58014 | 1261 ft | 9 kts | 110° |
| 2026-04-24 19:34 | -9.35888 | -40.57955 | 1261 ft | 9 kts | 105° |
| 2026-04-24 19:34 | -9.35985 | -40.57675 | 1262 ft | 79 kts | 108° |
| 2026-04-24 19:34 | -9.36200 | -40.56988 | 1368 ft | 112 kts | 110° |
| 2026-04-24 19:34 | -9.36406 | -40.56274 | 1784 ft | 104 kts | 101° |
| 2026-04-24 19:35 | -9.36431 | -40.55524 | 2069 ft | 112 kts | 83° |
| 2026-04-24 19:35 | -9.36175 | -40.54732 | 2199 ft | 125 kts | 75° |
| 2026-04-24 19:35 | -9.35854 | -40.53861 | 2266 ft | 139 kts | 73° |
| 2026-04-24 19:35 | -9.35505 | -40.52919 | 2378 ft | 146 kts | 73° |
| 2026-04-24 19:36 | -9.35146 | -40.51941 | 2487 ft | 150 kts | 74° |
| 2026-04-24 19:36 | -9.34779 | -40.50938 | 2601 ft | 151 kts | 75° |
| 2026-04-24 19:36 | -9.34412 | -40.49938 | 2711 ft | 151 kts | 74° |
| 2026-04-24 19:36 | -9.34049 | -40.48935 | 2824 ft | 152 kts | 75° |
| 2026-04-24 19:37 | -9.33682 | -40.47928 | 2934 ft | 151 kts | 75° |
| 2026-04-24 19:37 | -9.33313 | -40.46928 | 3041 ft | 151 kts | 74° |
| 2026-04-24 19:37 | -9.32954 | -40.45938 | 3140 ft | 150 kts | 75° |
| 2026-04-24 19:37 | -9.32588 | -40.44942 | 3243 ft | 150 kts | 75° |
| 2026-04-24 19:38 | -9.32230 | -40.43958 | 3349 ft | 150 kts | 75° |
| 2026-04-24 19:38 | -9.31867 | -40.42964 | 3459 ft | 150 kts | 74° |
| 2026-04-24 19:38 | -9.31502 | -40.41969 | 3562 ft | 150 kts | 75° |
| 2026-04-24 19:38 | -9.31140 | -40.40980 | 3668 ft | 150 kts | 75° |
| 2026-04-24 19:39 | -9.30775 | -40.39990 | 3775 ft | 150 kts | 75° |
| 2026-04-24 19:39 | -9.30414 | -40.38992 | 3889 ft | 150 kts | 75° |
| 2026-04-24 19:39 | -9.30050 | -40.38003 | 3996 ft | 150 kts | 75° |
| 2026-04-24 19:39 | -9.29688 | -40.37013 | 4104 ft | 150 kts | 74° |
| 2026-04-24 19:40 | -9.29322 | -40.36018 | 4211 ft | 150 kts | 74° |
| 2026-04-24 19:40 | -9.28958 | -40.35016 | 4320 ft | 151 kts | 74° |
| 2026-04-24 19:40 | -9.28594 | -40.34021 | 4432 ft | 151 kts | 74° |
| 2026-04-24 19:40 | -9.28226 | -40.33022 | 4547 ft | 151 kts | 75° |
| 2026-04-24 19:41 | -9.27857 | -40.32010 | 4659 ft | 151 kts | 75° |
| 2026-04-24 19:41 | -9.27493 | -40.31022 | 4773 ft | 151 kts | 74° |
| 2026-04-24 19:41 | -9.27125 | -40.30013 | 4891 ft | 152 kts | 74° |
| 2026-04-24 19:41 | -9.26753 | -40.28999 | 5009 ft | 152 kts | 74° |
| 2026-04-24 19:42 | -9.26388 | -40.28000 | 5126 ft | 152 kts | 73° |
| 2026-04-24 19:42 | -9.26017 | -40.26987 | 5241 ft | 153 kts | 73° |
| 2026-04-24 19:42 | -9.25647 | -40.25979 | 5358 ft | 153 kts | 73° |
| 2026-04-24 19:42 | -9.25276 | -40.24968 | 5474 ft | 152 kts | 73° |
| 2026-04-24 19:43 | -9.24902 | -40.23949 | 5594 ft | 152 kts | 73° |
| 2026-04-24 19:43 | -9.24533 | -40.22942 | 5712 ft | 152 kts | 73° |
| 2026-04-24 19:43 | -9.24161 | -40.21929 | 5834 ft | 153 kts | 73° |
| 2026-04-24 19:43 | -9.23789 | -40.20915 | 5952 ft | 153 kts | 74° |
| 2026-04-24 19:44 | -9.23420 | -40.19909 | 6070 ft | 153 kts | 73° |
| 2026-04-24 19:44 | -9.23047 | -40.18889 | 6188 ft | 154 kts | 73° |
| 2026-04-24 19:44 | -9.22673 | -40.17868 | 6303 ft | 154 kts | 73° |
| 2026-04-24 19:44 | -9.22298 | -40.16846 | 6420 ft | 154 kts | 73° |
| 2026-04-24 19:45 | -9.21922 | -40.15822 | 6535 ft | 155 kts | 73° |
| 2026-04-24 19:45 | -9.21546 | -40.14795 | 6654 ft | 155 kts | 73° |
| 2026-04-24 19:45 | -9.21174 | -40.13782 | 6771 ft | 155 kts | 73° |
| 2026-04-24 19:45 | -9.20798 | -40.12756 | 6887 ft | 155 kts | 73° |
| 2026-04-24 19:46 | -9.20417 | -40.11718 | 6975 ft | 157 kts | 73° |
| 2026-04-24 19:46 | -9.20031 | -40.10662 | 6986 ft | 161 kts | 73° |
| 2026-04-24 19:46 | -9.19640 | -40.09593 | 6984 ft | 164 kts | 73° |
| 2026-04-24 19:46 | -9.19240 | -40.08491 | 6982 ft | 165 kts | 73° |
| 2026-04-24 19:47 | -9.18842 | -40.07401 | 6984 ft | 166 kts | 73° |
| 2026-04-24 19:47 | -9.18440 | -40.06305 | 6982 ft | 166 kts | 73° |
| 2026-04-24 19:47 | -9.18039 | -40.05209 | 6983 ft | 166 kts | 73° |
| 2026-04-24 19:47 | -9.17632 | -40.04097 | 6984 ft | 166 kts | 73° |
| 2026-04-24 19:48 | -9.17226 | -40.02993 | 6985 ft | 166 kts | 73° |
| 2026-04-24 19:48 | -9.16822 | -40.01891 | 6986 ft | 167 kts | 73° |
| 2026-04-24 19:48 | -9.16013 | -39.99686 | 6985 ft | 167 kts | 73° |
| 2026-04-24 19:49 | -9.15206 | -39.97489 | 6985 ft | 166 kts | 73° |
| 2026-04-24 19:49 | -9.14395 | -39.95284 | 6985 ft | 166 kts | 73° |
| 2026-04-24 19:50 | -9.13200 | -39.92031 | 6985 ft | 158 kts | 73° |
| 2026-04-24 19:50 | -9.12818 | -39.90989 | 6988 ft | 157 kts | 73° |
| 2026-04-24 19:51 | -9.12051 | -39.88913 | 6988 ft | 156 kts | 73° |
| 2026-04-24 19:51 | -9.11674 | -39.87885 | 6983 ft | 156 kts | 73° |
| 2026-04-24 19:52 | -9.10916 | -39.85829 | 6972 ft | 156 kts | 73° |
| 2026-04-24 19:52 | -9.10537 | -39.84796 | 6972 ft | 156 kts | 73° |
| 2026-04-24 19:52 | -9.10159 | -39.83764 | 6954 ft | 157 kts | 73° |
| 2026-04-24 19:52 | -9.09777 | -39.82727 | 6936 ft | 157 kts | 73° |
| 2026-04-24 19:53 | -9.09392 | -39.81680 | 6936 ft | 156 kts | 73° |
| 2026-04-24 19:53 | -9.09016 | -39.80660 | 6937 ft | 155 kts | 73° |
| 2026-04-24 19:53 | -9.08258 | -39.78600 | 6939 ft | 156 kts | 73° |
| 2026-04-24 19:54 | -9.07878 | -39.77571 | 6942 ft | 156 kts | 73° |
| 2026-04-24 19:54 | -9.07507 | -39.76530 | 6943 ft | 155 kts | 76° |
| 2026-04-24 19:54 | -9.07218 | -39.75483 | 6942 ft | 155 kts | 78° |
| 2026-04-24 19:54 | -9.06934 | -39.74421 | 6942 ft | 155 kts | 78° |
| 2026-04-24 19:55 | -9.06839 | -39.74066 | 6943 ft | 155 kts | 78° |
| 2026-04-24 19:55 | -9.06371 | -39.72315 | 6945 ft | 154 kts | 79° |
| 2026-04-24 19:55 | -9.06092 | -39.71267 | 6946 ft | 155 kts | 78° |
| 2026-04-24 19:55 | -9.05810 | -39.70212 | 6947 ft | 155 kts | 78° |
| 2026-04-24 19:56 | -9.05529 | -39.69161 | 6949 ft | 155 kts | 78° |
| 2026-04-24 19:56 | -9.05246 | -39.68105 | 6945 ft | 155 kts | 78° |
| 2026-04-24 19:56 | -9.04961 | -39.67041 | 6945 ft | 155 kts | 78° |
| 2026-04-24 19:56 | -9.04679 | -39.65991 | 6946 ft | 155 kts | 78° |
| 2026-04-24 19:57 | -9.04398 | -39.64936 | 6946 ft | 155 kts | 78° |
| 2026-04-24 19:57 | -9.04114 | -39.63880 | 6947 ft | 155 kts | 78° |
| 2026-04-24 19:57 | -9.03826 | -39.62811 | 6949 ft | 156 kts | 78° |
| 2026-04-24 19:57 | -9.03544 | -39.61763 | 6950 ft | 155 kts | 78° |
| 2026-04-24 19:58 | -9.03259 | -39.60699 | 6950 ft | 155 kts | 78° |
| 2026-04-24 19:58 | -9.02976 | -39.59654 | 6952 ft | 155 kts | 78° |
| 2026-04-24 19:58 | -9.02696 | -39.58603 | 6954 ft | 155 kts | 78° |
| 2026-04-24 19:58 | -9.02412 | -39.57548 | 6955 ft | 155 kts | 78° |
| 2026-04-24 19:59 | -9.02127 | -39.56491 | 6960 ft | 155 kts | 78° |
| 2026-04-24 19:59 | -9.01845 | -39.55436 | 6960 ft | 155 kts | 78° |
| 2026-04-24 19:59 | -9.01562 | -39.54379 | 6963 ft | 155 kts | 78° |
| 2026-04-24 19:59 | -9.01277 | -39.53317 | 6960 ft | 155 kts | 77° |
| 2026-04-24 20:00 | -9.00994 | -39.52262 | 6961 ft | 155 kts | 78° |
| 2026-04-24 20:00 | -9.00708 | -39.51200 | 6960 ft | 156 kts | 78° |
| 2026-04-24 20:00 | -9.00423 | -39.50140 | 6962 ft | 155 kts | 78° |
| 2026-04-24 20:00 | -9.00139 | -39.49083 | 6963 ft | 156 kts | 78° |
| 2026-04-24 20:01 | -8.99854 | -39.48026 | 6961 ft | 156 kts | 78° |
| 2026-04-24 20:01 | -8.99572 | -39.46975 | 6961 ft | 156 kts | 78° |
| 2026-04-24 20:01 | -8.99285 | -39.45909 | 6959 ft | 156 kts | 78° |
| 2026-04-24 20:01 | -8.99002 | -39.44857 | 6955 ft | 156 kts | 78° |
| 2026-04-24 20:02 | -8.98812 | -39.44150 | 6954 ft | 155 kts | 78° |
| 2026-04-24 20:02 | -8.98434 | -39.42744 | 6955 ft | 155 kts | 78° |
| 2026-04-24 20:02 | -8.98151 | -39.41690 | 6958 ft | 156 kts | 78° |
| 2026-04-24 20:02 | -8.97863 | -39.40624 | 6956 ft | 156 kts | 78° |
| 2026-04-24 20:03 | -8.97703 | -39.40026 | 6954 ft | 157 kts | 78° |
| 2026-04-24 20:03 | -8.97433 | -39.39022 | 6951 ft | 157 kts | 78° |
| 2026-04-24 20:03 | -8.97145 | -39.37954 | 6953 ft | 156 kts | 78° |
| 2026-04-24 20:04 | -8.96861 | -39.36893 | 6952 ft | 156 kts | 78° |
| 2026-04-24 20:04 | -8.96575 | -39.35834 | 6953 ft | 156 kts | 77° |
| 2026-04-24 20:04 | -8.96292 | -39.34783 | 6954 ft | 156 kts | 77° |
| 2026-04-24 20:04 | -8.96006 | -39.33720 | 6956 ft | 156 kts | 77° |
| 2026-04-24 20:05 | -8.95719 | -39.32658 | 6953 ft | 157 kts | 77° |
| 2026-04-24 20:05 | -8.95432 | -39.31594 | 6953 ft | 157 kts | 77° |
| 2026-04-24 20:05 | -8.95145 | -39.30530 | 6955 ft | 157 kts | 78° |
| 2026-04-24 20:05 | -8.94857 | -39.29460 | 6950 ft | 157 kts | 78° |
| 2026-04-24 20:06 | -8.94570 | -39.28393 | 6949 ft | 157 kts | 78° |
| 2026-04-24 20:06 | -8.94278 | -39.27309 | 6945 ft | 157 kts | 78° |
| 2026-04-24 20:06 | -8.93993 | -39.26251 | 6948 ft | 158 kts | 78° |
| 2026-04-24 20:06 | -8.93704 | -39.25178 | 6949 ft | 157 kts | 77° |
| 2026-04-24 20:07 | -8.93513 | -39.24464 | 6947 ft | 158 kts | 77° |
| 2026-04-24 20:07 | -8.93126 | -39.23029 | 6949 ft | 157 kts | 77° |
| 2026-04-24 20:07 | -8.92838 | -39.21962 | 6948 ft | 157 kts | 77° |
| 2026-04-24 20:07 | -8.92550 | -39.20895 | 6946 ft | 157 kts | 77° |
| 2026-04-24 20:08 | -8.92261 | -39.19828 | 6942 ft | 157 kts | 77° |
| 2026-04-24 20:08 | -8.91975 | -39.18766 | 6947 ft | 157 kts | 77° |
| 2026-04-24 20:08 | -8.91688 | -39.17699 | 6950 ft | 157 kts | 77° |
| 2026-04-24 20:08 | -8.91401 | -39.16633 | 6948 ft | 157 kts | 77° |
| 2026-04-24 20:09 | -8.91113 | -39.15568 | 6950 ft | 157 kts | 77° |
| 2026-04-24 20:09 | -8.90825 | -39.14500 | 6946 ft | 157 kts | 77° |
| 2026-04-24 20:09 | -8.90537 | -39.13434 | 6942 ft | 157 kts | 77° |
| 2026-04-24 20:09 | -8.90251 | -39.12374 | 6945 ft | 157 kts | 77° |
| 2026-04-24 20:10 | -8.89961 | -39.11303 | 6943 ft | 157 kts | 77° |
| 2026-04-24 20:10 | -8.89669 | -39.10223 | 6940 ft | 158 kts | 77° |
| 2026-04-24 20:10 | -8.89382 | -39.09162 | 6940 ft | 158 kts | 77° |
| 2026-04-24 20:10 | -8.89092 | -39.08086 | 6943 ft | 158 kts | 78° |
| 2026-04-24 20:11 | -8.88805 | -39.07021 | 6940 ft | 158 kts | 78° |
| 2026-04-24 20:11 | -8.88517 | -39.05956 | 6940 ft | 157 kts | 78° |
| 2026-04-24 20:11 | -8.88226 | -39.04876 | 6943 ft | 157 kts | 78° |
| 2026-04-24 20:11 | -8.87941 | -39.03820 | 6943 ft | 157 kts | 77° |
| 2026-04-24 20:12 | -8.87651 | -39.02743 | 6940 ft | 157 kts | 77° |
| 2026-04-24 20:12 | -8.87362 | -39.01672 | 6939 ft | 157 kts | 77° |
| 2026-04-24 20:12 | -8.87076 | -39.00617 | 6935 ft | 157 kts | 77° |
| 2026-04-24 20:12 | -8.86786 | -38.99542 | 6939 ft | 157 kts | 77° |
| 2026-04-24 20:13 | -8.86497 | -38.98470 | 6939 ft | 158 kts | 77° |
| 2026-04-24 20:13 | -8.86210 | -38.97411 | 6937 ft | 158 kts | 77° |
| 2026-04-24 20:13 | -8.85920 | -38.96339 | 6937 ft | 158 kts | 77° |
| 2026-04-24 20:13 | -8.85626 | -38.95261 | 6938 ft | 158 kts | 77° |
| 2026-04-24 20:14 | -8.85335 | -38.94186 | 6942 ft | 158 kts | 78° |
| 2026-04-24 20:14 | -8.85045 | -38.93116 | 6943 ft | 157 kts | 78° |
| 2026-04-24 20:14 | -8.84757 | -38.92049 | 6947 ft | 157 kts | 78° |
| 2026-04-24 20:14 | -8.84469 | -38.90983 | 6944 ft | 157 kts | 78° |
| 2026-04-24 20:15 | -8.84182 | -38.89920 | 6942 ft | 157 kts | 78° |
| 2026-04-24 20:15 | -8.83893 | -38.88850 | 6942 ft | 157 kts | 78° |
| 2026-04-24 20:15 | -8.83605 | -38.87783 | 6944 ft | 157 kts | 77° |
| 2026-04-24 20:15 | -8.83317 | -38.86716 | 6951 ft | 157 kts | 77° |
| 2026-04-24 20:16 | -8.83029 | -38.85652 | 6952 ft | 157 kts | 77° |
| 2026-04-24 20:16 | -8.82743 | -38.84600 | 6956 ft | 157 kts | 77° |
| 2026-04-24 20:16 | -8.82455 | -38.83534 | 6960 ft | 157 kts | 77° |
| 2026-04-24 20:16 | -8.82164 | -38.82464 | 6963 ft | 157 kts | 78° |
| 2026-04-24 20:17 | -8.81874 | -38.81398 | 6962 ft | 157 kts | 78° |
| 2026-04-24 20:17 | -8.81296 | -38.79263 | 6957 ft | 156 kts | 78° |
| 2026-04-24 20:17 | -8.81012 | -38.78213 | 6956 ft | 156 kts | 78° |
| 2026-04-24 20:18 | -8.80819 | -38.77504 | 6954 ft | 156 kts | 78° |
| 2026-04-24 20:18 | -8.80436 | -38.76083 | 6951 ft | 156 kts | 78° |
| 2026-04-24 20:18 | -8.80151 | -38.75032 | 6951 ft | 156 kts | 78° |
| 2026-04-24 20:18 | -8.79864 | -38.73970 | 6951 ft | 156 kts | 78° |
| 2026-04-24 20:19 | -8.79577 | -38.72912 | 6950 ft | 156 kts | 78° |
| 2026-04-24 20:19 | -8.79289 | -38.71851 | 6949 ft | 156 kts | 78° |
| 2026-04-24 20:19 | -8.79006 | -38.70805 | 6949 ft | 156 kts | 78° |
| 2026-04-24 20:19 | -8.78718 | -38.69741 | 6950 ft | 156 kts | 78° |
| 2026-04-24 20:20 | -8.78429 | -38.68680 | 6950 ft | 156 kts | 78° |
| 2026-04-24 20:20 | -8.78142 | -38.67621 | 6951 ft | 156 kts | 78° |
| 2026-04-24 20:20 | -8.77854 | -38.66562 | 6951 ft | 156 kts | 78° |
| 2026-04-24 20:20 | -8.77566 | -38.65504 | 6950 ft | 156 kts | 78° |
| 2026-04-24 20:21 | -8.77280 | -38.64445 | 6950 ft | 156 kts | 78° |
| 2026-04-24 20:21 | -8.76994 | -38.63398 | 6954 ft | 155 kts | 78° |
| 2026-04-24 20:21 | -8.76708 | -38.62342 | 6953 ft | 155 kts | 78° |
| 2026-04-24 20:21 | -8.76422 | -38.61286 | 6952 ft | 155 kts | 78° |
| 2026-04-24 20:22 | -8.76136 | -38.60232 | 6952 ft | 155 kts | 78° |
| 2026-04-24 20:22 | -8.75851 | -38.59182 | 6951 ft | 156 kts | 78° |
| 2026-04-24 20:22 | -8.75563 | -38.58116 | 6951 ft | 156 kts | 78° |
| 2026-04-24 20:22 | -8.75275 | -38.57058 | 6952 ft | 156 kts | 78° |
| 2026-04-24 20:23 | -8.74990 | -38.56009 | 6953 ft | 156 kts | 78° |
| 2026-04-24 20:23 | -8.74702 | -38.54948 | 6951 ft | 156 kts | 78° |
| 2026-04-24 20:23 | -8.74414 | -38.53888 | 6951 ft | 155 kts | 78° |
| 2026-04-24 20:23 | -8.74127 | -38.52834 | 6956 ft | 155 kts | 78° |
| 2026-04-24 20:24 | -8.73941 | -38.52146 | 6957 ft | 155 kts | 78° |
| 2026-04-24 20:24 | -8.73560 | -38.50747 | 6965 ft | 154 kts | 78° |
| 2026-04-24 20:24 | -8.73274 | -38.49699 | 6968 ft | 154 kts | 78° |
| 2026-04-24 20:24 | -8.72992 | -38.48662 | 6964 ft | 154 kts | 78° |
| 2026-04-24 20:25 | -8.72707 | -38.47613 | 6959 ft | 154 kts | 78° |
| 2026-04-24 20:25 | -8.72424 | -38.46569 | 6958 ft | 154 kts | 78° |
| 2026-04-24 20:25 | -8.72140 | -38.45521 | 6957 ft | 155 kts | 78° |
| 2026-04-24 20:25 | -8.71853 | -38.44470 | 6960 ft | 155 kts | 78° |
| 2026-04-24 20:26 | -8.71567 | -38.43413 | 6962 ft | 155 kts | 78° |
| 2026-04-24 20:26 | -8.71285 | -38.42374 | 6962 ft | 155 kts | 78° |
| 2026-04-24 20:26 | -8.70998 | -38.41322 | 6965 ft | 155 kts | 78° |
| 2026-04-24 20:26 | -8.70711 | -38.40272 | 6965 ft | 154 kts | 78° |
| 2026-04-24 20:27 | -8.70427 | -38.39223 | 6966 ft | 154 kts | 78° |
| 2026-04-24 20:27 | -8.70143 | -38.38181 | 6963 ft | 154 kts | 78° |
| 2026-04-24 20:27 | -8.69858 | -38.37136 | 6964 ft | 154 kts | 78° |
| 2026-04-24 20:27 | -8.69575 | -38.36092 | 6965 ft | 154 kts | 78° |
| 2026-04-24 20:28 | -8.69290 | -38.35049 | 6964 ft | 154 kts | 78° |
| 2026-04-24 20:28 | -8.69111 | -38.34390 | 6966 ft | 154 kts | 78° |
| 2026-04-24 20:28 | -8.68966 | -38.33857 | 6962 ft | 154 kts | 78° |
| 2026-04-24 20:28 | -8.68681 | -38.32815 | 6966 ft | 154 kts | 78° |
| 2026-04-24 20:29 | -8.68490 | -38.32111 | 6967 ft | 154 kts | 78° |
| 2026-04-24 20:29 | -8.68109 | -38.30722 | 6970 ft | 154 kts | 78° |
| 2026-04-24 20:29 | -8.67825 | -38.29679 | 6972 ft | 155 kts | 78° |
| 2026-04-24 20:29 | -8.67537 | -38.28625 | 6975 ft | 155 kts | 78° |
| 2026-04-24 20:30 | -8.67252 | -38.27576 | 6977 ft | 155 kts | 78° |
| 2026-04-24 20:30 | -8.66966 | -38.26523 | 6976 ft | 155 kts | 78° |
| 2026-04-24 20:30 | -8.66681 | -38.25478 | 6977 ft | 154 kts | 78° |
| 2026-04-24 20:30 | -8.66394 | -38.24425 | 6978 ft | 154 kts | 78° |
| 2026-04-24 20:31 | -8.66111 | -38.23389 | 6978 ft | 154 kts | 78° |
| 2026-04-24 20:31 | -8.65826 | -38.22341 | 6981 ft | 153 kts | 78° |
| 2026-04-24 20:31 | -8.65542 | -38.21303 | 6984 ft | 153 kts | 78° |
| 2026-04-24 20:31 | -8.65262 | -38.20276 | 6986 ft | 153 kts | 78° |
| 2026-04-24 20:32 | -8.64979 | -38.19238 | 6985 ft | 153 kts | 79° |
| 2026-04-24 20:32 | -8.64692 | -38.18187 | 6985 ft | 153 kts | 78° |
| 2026-04-24 20:32 | -8.64410 | -38.17148 | 6982 ft | 154 kts | 78° |
| 2026-04-24 20:32 | -8.64124 | -38.16101 | 6984 ft | 154 kts | 78° |
| 2026-04-24 20:33 | -8.63841 | -38.15064 | 6984 ft | 154 kts | 78° |
| 2026-04-24 20:33 | -8.63553 | -38.14014 | 6984 ft | 154 kts | 78° |
| 2026-04-24 20:33 | -8.63270 | -38.12971 | 6983 ft | 154 kts | 78° |
| 2026-04-24 20:33 | -8.62983 | -38.11923 | 6985 ft | 153 kts | 78° |
| 2026-04-24 20:34 | -8.62703 | -38.10895 | 6989 ft | 153 kts | 78° |
| 2026-04-24 20:34 | -8.62419 | -38.09856 | 6991 ft | 152 kts | 78° |
| 2026-04-24 20:34 | -8.62136 | -38.08817 | 6993 ft | 152 kts | 78° |
| 2026-04-24 20:34 | -8.61854 | -38.07785 | 6994 ft | 152 kts | 79° |
| 2026-04-24 20:35 | -8.61571 | -38.06749 | 6992 ft | 152 kts | 79° |
| 2026-04-24 20:35 | -8.61291 | -38.05724 | 6988 ft | 152 kts | 78° |
| 2026-04-24 20:35 | -8.61009 | -38.04687 | 6986 ft | 153 kts | 78° |
| 2026-04-24 20:35 | -8.60726 | -38.03650 | 6986 ft | 153 kts | 78° |
| 2026-04-24 20:36 | -8.60443 | -38.02616 | 6986 ft | 153 kts | 78° |
| 2026-04-24 20:36 | -8.60157 | -38.01572 | 6986 ft | 153 kts | 78° |
| 2026-04-24 20:36 | -8.59871 | -38.00526 | 6988 ft | 153 kts | 78° |
| 2026-04-24 20:36 | -8.59588 | -37.99495 | 6987 ft | 153 kts | 79° |
| 2026-04-24 20:37 | -8.59306 | -37.98464 | 6987 ft | 152 kts | 79° |
| 2026-04-24 20:37 | -8.59025 | -37.97431 | 6987 ft | 153 kts | 78° |
| 2026-04-24 20:37 | -8.58740 | -37.96387 | 6986 ft | 153 kts | 79° |
| 2026-04-24 20:37 | -8.58457 | -37.95357 | 6986 ft | 153 kts | 79° |
| 2026-04-24 20:38 | -8.58172 | -37.94310 | 6984 ft | 153 kts | 79° |
| 2026-04-24 20:38 | -8.57889 | -37.93278 | 6985 ft | 153 kts | 79° |
| 2026-04-24 20:38 | -8.57604 | -37.92235 | 6986 ft | 153 kts | 79° |
| 2026-04-24 20:38 | -8.57322 | -37.91200 | 6985 ft | 153 kts | 78° |
| 2026-04-24 20:39 | -8.57039 | -37.90167 | 6984 ft | 153 kts | 78° |
| 2026-04-24 20:39 | -8.56753 | -37.89120 | 6983 ft | 153 kts | 78° |
| 2026-04-24 20:39 | -8.56472 | -37.88093 | 6982 ft | 153 kts | 78° |
| 2026-04-24 20:39 | -8.56185 | -37.87047 | 6983 ft | 153 kts | 78° |
| 2026-04-24 20:40 | -8.55900 | -37.86005 | 6982 ft | 154 kts | 78° |
| 2026-04-24 20:40 | -8.55615 | -37.84969 | 6982 ft | 154 kts | 78° |
| 2026-04-24 20:40 | -8.55328 | -37.83918 | 6981 ft | 154 kts | 78° |
| 2026-04-24 20:40 | -8.55045 | -37.82883 | 6981 ft | 154 kts | 79° |
| 2026-04-24 20:41 | -8.54760 | -37.81844 | 6980 ft | 154 kts | 79° |
| 2026-04-24 20:41 | -8.54471 | -37.80788 | 6980 ft | 155 kts | 79° |
| 2026-04-24 20:41 | -8.54185 | -37.79744 | 6979 ft | 155 kts | 79° |
| 2026-04-24 20:41 | -8.53895 | -37.78681 | 6975 ft | 155 kts | 78° |
| 2026-04-24 20:42 | -8.53609 | -37.77639 | 6978 ft | 154 kts | 78° |
| 2026-04-24 20:42 | -8.53320 | -37.76584 | 6979 ft | 154 kts | 78° |
| 2026-04-24 20:42 | -8.53032 | -37.75535 | 6979 ft | 154 kts | 78° |
| 2026-04-24 20:42 | -8.52746 | -37.74495 | 6980 ft | 154 kts | 78° |
| 2026-04-24 20:43 | -8.52460 | -37.73449 | 6982 ft | 154 kts | 78° |
| 2026-04-24 20:43 | -8.52171 | -37.72396 | 6982 ft | 154 kts | 78° |
| 2026-04-24 20:43 | -8.51885 | -37.71349 | 6983 ft | 155 kts | 78° |
| 2026-04-24 20:43 | -8.51599 | -37.70306 | 6979 ft | 155 kts | 78° |
| 2026-04-24 20:44 | -8.51310 | -37.69250 | 6975 ft | 155 kts | 79° |
| 2026-04-24 20:44 | -8.51019 | -37.68195 | 6976 ft | 156 kts | 79° |
| 2026-04-24 20:44 | -8.50729 | -37.67137 | 6975 ft | 156 kts | 78° |
| 2026-04-24 20:44 | -8.50437 | -37.66072 | 6976 ft | 156 kts | 78° |
| 2026-04-24 20:45 | -8.50146 | -37.65011 | 6978 ft | 155 kts | 79° |
| 2026-04-24 20:45 | -8.49858 | -37.63962 | 6983 ft | 155 kts | 79° |
| 2026-04-24 20:45 | -8.49566 | -37.62899 | 6986 ft | 155 kts | 79° |
| 2026-04-24 20:45 | -8.49278 | -37.61843 | 6986 ft | 156 kts | 78° |
| 2026-04-24 20:46 | -8.48991 | -37.60795 | 6986 ft | 156 kts | 78° |
| 2026-04-24 20:46 | -8.48696 | -37.59720 | 6987 ft | 157 kts | 78° |
| 2026-04-24 20:46 | -8.48406 | -37.58670 | 6984 ft | 157 kts | 78° |
| 2026-04-24 20:46 | -8.48109 | -37.57586 | 6981 ft | 157 kts | 78° |
| 2026-04-24 20:47 | -8.47817 | -37.56522 | 6983 ft | 157 kts | 78° |
| 2026-04-24 20:47 | -8.47519 | -37.55442 | 6985 ft | 157 kts | 78° |
| 2026-04-24 20:47 | -8.47228 | -37.54383 | 6984 ft | 157 kts | 78° |
| 2026-04-24 20:47 | -8.46931 | -37.53299 | 6983 ft | 157 kts | 78° |
| 2026-04-24 20:48 | -8.46643 | -37.52248 | 6985 ft | 157 kts | 78° |
| 2026-04-24 20:48 | -8.46346 | -37.51173 | 6986 ft | 157 kts | 79° |
| 2026-04-24 20:48 | -8.46054 | -37.50110 | 6987 ft | 158 kts | 78° |
| 2026-04-24 20:48 | -8.45760 | -37.49036 | 6994 ft | 158 kts | 79° |
| 2026-04-24 20:49 | -8.45464 | -37.47964 | 6997 ft | 158 kts | 78° |
| 2026-04-24 20:49 | -8.45171 | -37.46895 | 7000 ft | 158 kts | 79° |
| 2026-04-24 20:49 | -8.44874 | -37.45816 | 7003 ft | 158 kts | 79° |
| 2026-04-24 20:49 | -8.44581 | -37.44751 | 7004 ft | 157 kts | 79° |
| 2026-04-24 20:50 | -8.44290 | -37.43683 | 7004 ft | 158 kts | 78° |
| 2026-04-24 20:50 | -8.43996 | -37.42612 | 7005 ft | 158 kts | 78° |
| 2026-04-24 20:50 | -8.43700 | -37.41543 | 7007 ft | 158 kts | 78° |
| 2026-04-24 20:50 | -8.43403 | -37.40462 | 7008 ft | 158 kts | 78° |
| 2026-04-24 20:51 | -8.43108 | -37.39389 | 7009 ft | 159 kts | 78° |
| 2026-04-24 20:51 | -8.42812 | -37.38318 | 7010 ft | 159 kts | 78° |
| 2026-04-24 20:51 | -8.42515 | -37.37234 | 7011 ft | 160 kts | 78° |
| 2026-04-24 20:51 | -8.42219 | -37.36159 | 7012 ft | 160 kts | 78° |
| 2026-04-24 20:52 | -8.41918 | -37.35064 | 7013 ft | 160 kts | 78° |
| 2026-04-24 20:52 | -8.41620 | -37.33986 | 7018 ft | 160 kts | 78° |
| 2026-04-24 20:52 | -8.41321 | -37.32901 | 7021 ft | 160 kts | 78° |
| 2026-04-24 20:52 | -8.41024 | -37.31823 | 7022 ft | 160 kts | 78° |
| 2026-04-24 20:53 | -8.40727 | -37.30741 | 7021 ft | 159 kts | 78° |
| 2026-04-24 20:53 | -8.40431 | -37.29660 | 7020 ft | 159 kts | 78° |
| 2026-04-24 20:53 | -8.40134 | -37.28585 | 7020 ft | 160 kts | 78° |
| 2026-04-24 20:53 | -8.39835 | -37.27502 | 7020 ft | 160 kts | 78° |
| 2026-04-24 20:54 | -8.39537 | -37.26415 | 7021 ft | 160 kts | 78° |
| 2026-04-24 20:54 | -8.39235 | -37.25323 | 7023 ft | 160 kts | 78° |
| 2026-04-24 20:54 | -8.38940 | -37.24248 | 7024 ft | 160 kts | 78° |
| 2026-04-24 20:54 | -8.38637 | -37.23158 | 7025 ft | 160 kts | 78° |
| 2026-04-24 20:55 | -8.38340 | -37.22076 | 7024 ft | 161 kts | 78° |
| 2026-04-24 20:55 | -8.38039 | -37.20987 | 7026 ft | 161 kts | 78° |
| 2026-04-24 20:55 | -8.37737 | -37.19893 | 7026 ft | 161 kts | 78° |
| 2026-04-24 20:55 | -8.37437 | -37.18798 | 7025 ft | 162 kts | 78° |
| 2026-04-24 20:56 | -8.37134 | -37.17706 | 7022 ft | 161 kts | 78° |
| 2026-04-24 20:56 | -8.36833 | -37.16610 | 7021 ft | 161 kts | 78° |
| 2026-04-24 20:56 | -8.36533 | -37.15524 | 7020 ft | 161 kts | 78° |
| 2026-04-24 20:56 | -8.36232 | -37.14431 | 7021 ft | 161 kts | 78° |
| 2026-04-24 20:57 | -8.35928 | -37.13327 | 7021 ft | 161 kts | 78° |
| 2026-04-24 20:57 | -8.35627 | -37.12233 | 7022 ft | 162 kts | 77° |
| 2026-04-24 20:57 | -8.35329 | -37.11149 | 7021 ft | 162 kts | 78° |
| 2026-04-24 20:57 | -8.35024 | -37.10049 | 7020 ft | 162 kts | 78° |
| 2026-04-24 20:58 | -8.34724 | -37.08962 | 7021 ft | 162 kts | 78° |
| 2026-04-24 20:58 | -8.34422 | -37.07869 | 7021 ft | 162 kts | 77° |
| 2026-04-24 20:58 | -8.34118 | -37.06763 | 7025 ft | 162 kts | 78° |
| 2026-04-24 20:58 | -8.33812 | -37.05666 | 7026 ft | 163 kts | 78° |
| 2026-04-24 20:59 | -8.33507 | -37.04558 | 7025 ft | 163 kts | 78° |
| 2026-04-24 20:59 | -8.33205 | -37.03463 | 7025 ft | 163 kts | 78° |
| 2026-04-24 20:59 | -8.32896 | -37.02351 | 7025 ft | 163 kts | 78° |
| 2026-04-24 20:59 | -8.32591 | -37.01243 | 7025 ft | 163 kts | 78° |
| 2026-04-24 21:00 | -8.32290 | -37.00145 | 7027 ft | 163 kts | 78° |
| 2026-04-24 21:00 | -8.31981 | -36.99027 | 7028 ft | 164 kts | 78° |
| 2026-04-24 21:00 | -8.31673 | -36.97910 | 7027 ft | 164 kts | 78° |
| 2026-04-24 21:00 | -8.31364 | -36.96795 | 7027 ft | 164 kts | 78° |
| 2026-04-24 21:01 | -8.31056 | -36.95680 | 7027 ft | 164 kts | 78° |
| 2026-04-24 21:01 | -8.30752 | -36.94578 | 7027 ft | 164 kts | 77° |
| 2026-04-24 21:01 | -8.30447 | -36.93474 | 7030 ft | 163 kts | 77° |
| 2026-04-24 21:01 | -8.30139 | -36.92364 | 7030 ft | 163 kts | 78° |
| 2026-04-24 21:02 | -8.29832 | -36.91258 | 7028 ft | 163 kts | 77° |
| 2026-04-24 21:02 | -8.29524 | -36.90139 | 7029 ft | 163 kts | 78° |
| 2026-04-24 21:02 | -8.29218 | -36.89040 | 7029 ft | 162 kts | 78° |
| 2026-04-24 21:02 | -8.28914 | -36.87942 | 7033 ft | 162 kts | 78° |
| 2026-04-24 21:03 | -8.28611 | -36.86843 | 7039 ft | 162 kts | 78° |
| 2026-04-24 21:03 | -8.28303 | -36.85733 | 7043 ft | 162 kts | 78° |
| 2026-04-24 21:03 | -8.28002 | -36.84644 | 7046 ft | 162 kts | 78° |
| 2026-04-24 21:03 | -8.27698 | -36.83536 | 7048 ft | 162 kts | 78° |
| 2026-04-24 21:04 | -8.27393 | -36.82438 | 7048 ft | 162 kts | 78° |
| 2026-04-24 21:04 | -8.27084 | -36.81319 | 7048 ft | 162 kts | 78° |
| 2026-04-24 21:04 | -8.26781 | -36.80220 | 7049 ft | 162 kts | 78° |
| 2026-04-24 21:04 | -8.26479 | -36.79129 | 7048 ft | 162 kts | 78° |
| 2026-04-24 21:05 | -8.26172 | -36.78027 | 7045 ft | 162 kts | 78° |
| 2026-04-24 21:05 | -8.25870 | -36.76928 | 7046 ft | 162 kts | 78° |
| 2026-04-24 21:05 | -8.25563 | -36.75825 | 7047 ft | 162 kts | 77° |
| 2026-04-24 21:05 | -8.25257 | -36.74719 | 7046 ft | 163 kts | 77° |
| 2026-04-24 21:06 | -8.24951 | -36.73620 | 7045 ft | 163 kts | 77° |
| 2026-04-24 21:06 | -8.24645 | -36.72512 | 7043 ft | 162 kts | 78° |
| 2026-04-24 21:06 | -8.24337 | -36.71406 | 7039 ft | 162 kts | 78° |
| 2026-04-24 21:06 | -8.24032 | -36.70306 | 7039 ft | 162 kts | 78° |
| 2026-04-24 21:07 | -8.23728 | -36.69206 | 7044 ft | 162 kts | 78° |
| 2026-04-24 21:07 | -8.23422 | -36.68102 | 7042 ft | 162 kts | 78° |
| 2026-04-24 21:07 | -8.23119 | -36.67007 | 7043 ft | 162 kts | 79° |
| 2026-04-24 21:07 | -8.22813 | -36.65905 | 7046 ft | 162 kts | 78° |
| 2026-04-24 21:08 | -8.22507 | -36.64800 | 7049 ft | 163 kts | 78° |
| 2026-04-24 21:08 | -8.22204 | -36.63702 | 7053 ft | 163 kts | 78° |
| 2026-04-24 21:08 | -8.21893 | -36.62589 | 7058 ft | 164 kts | 78° |
| 2026-04-24 21:08 | -8.21587 | -36.61478 | 7059 ft | 164 kts | 78° |
| 2026-04-24 21:09 | -8.21280 | -36.60371 | 7058 ft | 164 kts | 78° |
| 2026-04-24 21:09 | -8.20824 | -36.59290 | 7058 ft | 166 kts | 67° |
| 2026-04-24 21:09 | -8.20311 | -36.58250 | 7058 ft | 166 kts | 67° |
| 2026-04-24 21:09 | -8.19782 | -36.57206 | 7059 ft | 166 kts | 67° |
| 2026-04-24 21:10 | -8.19255 | -36.56166 | 7063 ft | 166 kts | 67° |
| 2026-04-24 21:10 | -8.18726 | -36.55125 | 7061 ft | 167 kts | 67° |
| 2026-04-24 21:10 | -8.18192 | -36.54070 | 7061 ft | 166 kts | 67° |
| 2026-04-24 21:10 | -8.17670 | -36.53035 | 7057 ft | 166 kts | 67° |
| 2026-04-24 21:11 | -8.17141 | -36.51989 | 7059 ft | 166 kts | 67° |
| 2026-04-24 21:11 | -8.16611 | -36.50938 | 7059 ft | 166 kts | 67° |
| 2026-04-24 21:11 | -8.16087 | -36.49903 | 7058 ft | 166 kts | 67° |
| 2026-04-24 21:11 | -8.15562 | -36.48862 | 7054 ft | 166 kts | 67° |
| 2026-04-24 21:12 | -8.15038 | -36.47823 | 7050 ft | 166 kts | 67° |
| 2026-04-24 21:12 | -8.14685 | -36.47126 | 7048 ft | 166 kts | 67° |
| 2026-04-24 21:12 | -8.13982 | -36.45737 | 7041 ft | 165 kts | 67° |
| 2026-04-24 21:12 | -8.13465 | -36.44711 | 7039 ft | 165 kts | 67° |
| 2026-04-24 21:13 | -8.12943 | -36.43681 | 7037 ft | 165 kts | 67° |
| 2026-04-24 21:13 | -8.12421 | -36.42649 | 7037 ft | 164 kts | 67° |
| 2026-04-24 21:13 | -8.11903 | -36.41625 | 7034 ft | 164 kts | 67° |
| 2026-04-24 21:13 | -8.11382 | -36.40589 | 7031 ft | 164 kts | 67° |
| 2026-04-24 21:14 | -8.10866 | -36.39568 | 7031 ft | 164 kts | 67° |
| 2026-04-24 21:14 | -8.10346 | -36.38538 | 7028 ft | 164 kts | 66° |
| 2026-04-24 21:14 | -8.09828 | -36.37514 | 7028 ft | 164 kts | 67° |
| 2026-04-24 21:14 | -8.09310 | -36.36492 | 7028 ft | 164 kts | 67° |
| 2026-04-24 21:15 | -8.08788 | -36.35461 | 7023 ft | 164 kts | 66° |
| 2026-04-24 21:15 | -8.08264 | -36.34420 | 7017 ft | 165 kts | 66° |
| 2026-04-24 21:15 | -8.07739 | -36.33385 | 7018 ft | 165 kts | 66° |
| 2026-04-24 21:15 | -8.07219 | -36.32358 | 7022 ft | 165 kts | 67° |
| 2026-04-24 21:16 | -8.06701 | -36.31335 | 7022 ft | 164 kts | 67° |
| 2026-04-24 21:16 | -8.06178 | -36.30303 | 7022 ft | 164 kts | 67° |
| 2026-04-24 21:16 | -8.05658 | -36.29275 | 7023 ft | 164 kts | 67° |
| 2026-04-24 21:16 | -8.05138 | -36.28245 | 7023 ft | 164 kts | 67° |
| 2026-04-24 21:17 | -8.04618 | -36.27219 | 7022 ft | 164 kts | 67° |
| 2026-04-24 21:17 | -8.04097 | -36.26189 | 7021 ft | 164 kts | 67° |
| 2026-04-24 21:17 | -8.03576 | -36.25158 | 7021 ft | 165 kts | 67° |
| 2026-04-24 21:17 | -8.03227 | -36.24469 | 7019 ft | 165 kts | 67° |
| 2026-04-24 21:18 | -8.02530 | -36.23086 | 7017 ft | 165 kts | 66° |
| 2026-04-24 21:18 | -8.02010 | -36.22060 | 7017 ft | 164 kts | 66° |
| 2026-04-24 21:18 | -8.01492 | -36.21038 | 7017 ft | 164 kts | 66° |
| 2026-04-24 21:18 | -8.00971 | -36.20009 | 7014 ft | 164 kts | 66° |
| 2026-04-24 21:19 | -8.00450 | -36.18979 | 7012 ft | 164 kts | 66° |
| 2026-04-24 21:19 | -7.99930 | -36.17950 | 7008 ft | 164 kts | 66° |
| 2026-04-24 21:19 | -7.99405 | -36.16920 | 7007 ft | 164 kts | 66° |
| 2026-04-24 21:19 | -7.98888 | -36.15895 | 7011 ft | 164 kts | 66° |
| 2026-04-24 21:20 | -7.97845 | -36.13840 | 7007 ft | 164 kts | 67° |
| 2026-04-24 21:20 | -7.97332 | -36.12825 | 7006 ft | 164 kts | 67° |
| 2026-04-24 21:20 | -7.96816 | -36.11803 | 7005 ft | 164 kts | 67° |
| 2026-04-24 21:21 | -7.96296 | -36.10778 | 7005 ft | 164 kts | 66° |
| 2026-04-24 21:21 | -7.95770 | -36.09742 | 7004 ft | 164 kts | 67° |
| 2026-04-24 21:21 | -7.95245 | -36.08707 | 7003 ft | 164 kts | 67° |
| 2026-04-24 21:21 | -7.94730 | -36.07688 | 7004 ft | 164 kts | 67° |
| 2026-04-24 21:22 | -7.94207 | -36.06652 | 7000 ft | 164 kts | 67° |
| 2026-04-24 21:22 | -7.93684 | -36.05621 | 7003 ft | 164 kts | 67° |
| 2026-04-24 21:22 | -7.93166 | -36.04598 | 7003 ft | 164 kts | 67° |
| 2026-04-24 21:22 | -7.92820 | -36.03919 | 7001 ft | 164 kts | 67° |
| 2026-04-24 21:23 | -7.92124 | -36.02548 | 6997 ft | 164 kts | 67° |
| 2026-04-24 21:23 | -7.91608 | -36.01528 | 6998 ft | 163 kts | 67° |
| 2026-04-24 21:23 | -7.91088 | -36.00500 | 6999 ft | 163 kts | 66° |
| 2026-04-24 21:23 | -7.90569 | -35.99476 | 7002 ft | 163 kts | 67° |
| 2026-04-24 21:24 | -7.90054 | -35.98463 | 7000 ft | 164 kts | 67° |
| 2026-04-24 21:24 | -7.89532 | -35.97428 | 6999 ft | 164 kts | 66° |
| 2026-04-24 21:24 | -7.89012 | -35.96405 | 6999 ft | 164 kts | 66° |
| 2026-04-24 21:24 | -7.88490 | -35.95379 | 6996 ft | 164 kts | 67° |
| 2026-04-24 21:25 | -7.87966 | -35.94347 | 6994 ft | 164 kts | 68° |
| 2026-04-24 21:25 | -7.87445 | -35.93320 | 6994 ft | 164 kts | 68° |
| 2026-04-24 21:25 | -7.86927 | -35.92298 | 6990 ft | 164 kts | 67° |
| 2026-04-24 21:25 | -7.86408 | -35.91273 | 6988 ft | 164 kts | 67° |
| 2026-04-24 21:26 | -7.85892 | -35.90251 | 6988 ft | 163 kts | 67° |
| 2026-04-24 21:26 | -7.85374 | -35.89234 | 6987 ft | 163 kts | 67° |
| 2026-04-24 21:26 | -7.84860 | -35.88216 | 6985 ft | 163 kts | 68° |
| 2026-04-24 21:26 | -7.84339 | -35.87194 | 6984 ft | 163 kts | 67° |
| 2026-04-24 21:27 | -7.83822 | -35.86174 | 6982 ft | 163 kts | 67° |
| 2026-04-24 21:27 | -7.83297 | -35.85143 | 6982 ft | 163 kts | 67° |
| 2026-04-24 21:27 | -7.82778 | -35.84115 | 6982 ft | 164 kts | 67° |
| 2026-04-24 21:27 | -7.82432 | -35.83436 | 6982 ft | 164 kts | 67° |
| 2026-04-24 21:28 | -7.81734 | -35.82061 | 6980 ft | 164 kts | 67° |
| 2026-04-24 21:28 | -7.81220 | -35.81047 | 6978 ft | 164 kts | 67° |
| 2026-04-24 21:28 | -7.80697 | -35.80018 | 6976 ft | 163 kts | 67° |
| 2026-04-24 21:28 | -7.80178 | -35.78994 | 6974 ft | 164 kts | 67° |
| 2026-04-24 21:29 | -7.79654 | -35.77965 | 6973 ft | 163 kts | 67° |
| 2026-04-24 21:29 | -7.79139 | -35.76953 | 6971 ft | 163 kts | 67° |
| 2026-04-24 21:29 | -7.78622 | -35.75931 | 6967 ft | 163 kts | 67° |
| 2026-04-24 21:29 | -7.78102 | -35.74905 | 6964 ft | 164 kts | 66° |
| 2026-04-24 21:30 | -7.77577 | -35.73873 | 6961 ft | 164 kts | 67° |
| 2026-04-24 21:30 | -7.77057 | -35.72847 | 6960 ft | 164 kts | 66° |
| 2026-04-24 21:30 | -7.76540 | -35.71832 | 6960 ft | 164 kts | 67° |
| 2026-04-24 21:30 | -7.76018 | -35.70808 | 6960 ft | 164 kts | 67° |
| 2026-04-24 21:31 | -7.75494 | -35.69774 | 6958 ft | 164 kts | 68° |
| 2026-04-24 21:31 | -7.74974 | -35.68751 | 6957 ft | 164 kts | 67° |
| 2026-04-24 21:31 | -7.74457 | -35.67734 | 6956 ft | 164 kts | 67° |
| 2026-04-24 21:31 | -7.73937 | -35.66707 | 6955 ft | 163 kts | 67° |
| 2026-04-24 21:32 | -7.73413 | -35.65680 | 6953 ft | 163 kts | 67° |
| 2026-04-24 21:32 | -7.72912 | -35.64656 | 6950 ft | 162 kts | 75° |
| 2026-04-24 21:32 | -7.72735 | -35.63549 | 6952 ft | 159 kts | 87° |
| 2026-04-24 21:32 | -7.72625 | -35.62426 | 6948 ft | 159 kts | 89° |
| 2026-04-24 21:33 | -7.72528 | -35.61308 | 6948 ft | 159 kts | 89° |
| 2026-04-24 21:33 | -7.72467 | -35.60566 | 6949 ft | 159 kts | 89° |
| 2026-04-24 21:33 | -7.72341 | -35.59077 | 6946 ft | 159 kts | 89° |
| 2026-04-24 21:33 | -7.72248 | -35.57966 | 6947 ft | 159 kts | 89° |
| 2026-04-24 21:34 | -7.72150 | -35.56847 | 6945 ft | 159 kts | 88° |
| 2026-04-24 21:34 | -7.72056 | -35.55733 | 6945 ft | 159 kts | 89° |
| 2026-04-24 21:34 | -7.71960 | -35.54615 | 6944 ft | 159 kts | 89° |
| 2026-04-24 21:34 | -7.71864 | -35.53493 | 6943 ft | 159 kts | 89° |
| 2026-04-24 21:35 | -7.71767 | -35.52376 | 6941 ft | 159 kts | 88° |
| 2026-04-24 21:35 | -7.71673 | -35.51263 | 6944 ft | 159 kts | 89° |
| 2026-04-24 21:35 | -7.71576 | -35.50155 | 6945 ft | 159 kts | 89° |
| 2026-04-24 21:35 | -7.71479 | -35.49033 | 6941 ft | 159 kts | 89° |
| 2026-04-24 21:36 | -7.71384 | -35.47919 | 6942 ft | 159 kts | 88° |
| 2026-04-24 21:36 | -7.71288 | -35.46805 | 6947 ft | 158 kts | 88° |
| 2026-04-24 21:36 | -7.71194 | -35.45696 | 6949 ft | 158 kts | 89° |
| 2026-04-24 21:36 | -7.71098 | -35.44592 | 6949 ft | 159 kts | 89° |
| 2026-04-24 21:37 | -7.71002 | -35.43486 | 6946 ft | 158 kts | 88° |
| 2026-04-24 21:37 | -7.70906 | -35.42365 | 6948 ft | 159 kts | 88° |
| 2026-04-24 21:37 | -7.70811 | -35.41264 | 6949 ft | 159 kts | 88° |
| 2026-04-24 21:37 | -7.70712 | -35.40140 | 6949 ft | 159 kts | 88° |
| 2026-04-24 21:38 | -7.70618 | -35.39035 | 6947 ft | 159 kts | 88° |
| 2026-04-24 21:38 | -7.70522 | -35.37920 | 6945 ft | 159 kts | 89° |
| 2026-04-24 21:38 | -7.70426 | -35.36813 | 6945 ft | 159 kts | 88° |
| 2026-04-24 21:38 | -7.70331 | -35.35711 | 6907 ft | 161 kts | 89° |
| 2026-04-24 21:39 | -7.70228 | -35.34533 | 6667 ft | 171 kts | 88° |
| 2026-04-24 21:39 | -7.70124 | -35.33331 | 6432 ft | 174 kts | 89° |
| 2026-04-24 21:39 | -7.70017 | -35.32122 | 6193 ft | 174 kts | 88° |
| 2026-04-24 21:39 | -7.69911 | -35.30903 | 5952 ft | 174 kts | 88° |
| 2026-04-24 21:40 | -7.69808 | -35.29695 | 5719 ft | 174 kts | 89° |
| 2026-04-24 21:40 | -7.69700 | -35.28489 | 5486 ft | 173 kts | 89° |
| 2026-04-24 21:40 | -7.69596 | -35.27271 | 5247 ft | 173 kts | 89° |
| 2026-04-24 21:40 | -7.69492 | -35.26076 | 5006 ft | 172 kts | 89° |
| 2026-04-24 21:41 | -7.69386 | -35.24864 | 4761 ft | 172 kts | 89° |
| 2026-04-24 21:41 | -7.69280 | -35.23658 | 4518 ft | 172 kts | 90° |
| 2026-04-24 21:41 | -7.69176 | -35.22466 | 4278 ft | 171 kts | 90° |
| 2026-04-24 21:41 | -7.69072 | -35.21275 | 4040 ft | 171 kts | 90° |
| 2026-04-24 21:42 | -7.68968 | -35.20072 | 3797 ft | 170 kts | 90° |
| 2026-04-24 21:42 | -7.68865 | -35.18892 | 3558 ft | 170 kts | 90° |
| 2026-04-24 21:42 | -7.68763 | -35.17707 | 3316 ft | 170 kts | 90° |
| 2026-04-24 21:42 | -7.68658 | -35.16525 | 3081 ft | 169 kts | 90° |
| 2026-04-24 21:43 | -7.68554 | -35.15351 | 3006 ft | 162 kts | 90° |
| 2026-04-24 21:43 | -7.68457 | -35.14254 | 3000 ft | 156 kts | 90° |
| 2026-04-24 21:43 | -7.68364 | -35.13181 | 3003 ft | 153 kts | 91° |
| 2026-04-24 21:43 | -7.68266 | -35.12105 | 3005 ft | 155 kts | 90° |
| 2026-04-24 21:44 | -7.68171 | -35.11008 | 3004 ft | 158 kts | 90° |
| 2026-04-24 21:44 | -7.68071 | -35.09906 | 3004 ft | 159 kts | 91° |
| 2026-04-24 21:44 | -7.67974 | -35.08792 | 3003 ft | 160 kts | 90° |
| 2026-04-24 21:44 | -7.67976 | -35.07684 | 3003 ft | 156 kts | 111° |
| 2026-04-24 21:45 | -7.68695 | -35.06924 | 3012 ft | 151 kts | 151° |
| 2026-04-24 21:45 | -7.69647 | -35.06465 | 3004 ft | 152 kts | 157° |
| 2026-04-24 21:45 | -7.70651 | -35.06117 | 3001 ft | 152 kts | 160° |
| 2026-04-24 21:45 | -7.71663 | -35.05791 | 3000 ft | 152 kts | 160° |
| 2026-04-24 21:46 | -7.72643 | -35.05479 | 3053 ft | 141 kts | 160° |
| 2026-04-24 21:46 | -7.73566 | -35.05182 | 2993 ft | 138 kts | 160° |
| 2026-04-24 21:46 | -7.74482 | -35.04880 | 2996 ft | 136 kts | 160° |
| 2026-04-24 21:46 | -7.75389 | -35.04586 | 2998 ft | 135 kts | 160° |
| 2026-04-24 21:47 | -7.76279 | -35.04297 | 2996 ft | 135 kts | 160° |
| 2026-04-24 21:47 | -7.76882 | -35.04098 | 2999 ft | 135 kts | 160° |
| 2026-04-24 21:47 | -7.78091 | -35.03706 | 2997 ft | 136 kts | 160° |
| 2026-04-24 21:47 | -7.78998 | -35.03409 | 3001 ft | 135 kts | 161° |
| 2026-04-24 21:48 | -7.79903 | -35.03115 | 3005 ft | 135 kts | 160° |
| 2026-04-24 21:48 | -7.80805 | -35.02821 | 3009 ft | 135 kts | 160° |
| 2026-04-24 21:48 | -7.81709 | -35.02528 | 3013 ft | 136 kts | 160° |
| 2026-04-24 21:48 | -7.82599 | -35.02239 | 3011 ft | 136 kts | 160° |
| 2026-04-24 21:49 | -7.83514 | -35.01943 | 3009 ft | 135 kts | 160° |
| 2026-04-24 21:49 | -7.84404 | -35.01651 | 3009 ft | 135 kts | 160° |
| 2026-04-24 21:49 | -7.85308 | -35.01358 | 2975 ft | 136 kts | 160° |
| 2026-04-24 21:49 | -7.86089 | -35.01052 | 3218 ft | 110 kts | 146° |
| 2026-04-24 21:50 | -7.86828 | -35.00717 | 3105 ft | 122 kts | 165° |
| 2026-04-24 21:50 | -7.87667 | -35.00494 | 2999 ft | 125 kts | 163° |
| 2026-04-24 21:50 | -7.88507 | -35.00257 | 2912 ft | 124 kts | 161° |
| 2026-04-24 21:50 | -7.89349 | -35.00001 | 2832 ft | 124 kts | 160° |
| 2026-04-24 21:51 | -7.90178 | -34.99741 | 2761 ft | 123 kts | 160° |
| 2026-04-24 21:51 | -7.91003 | -34.99472 | 2678 ft | 123 kts | 160° |
| 2026-04-24 21:51 | -7.91822 | -34.99205 | 2581 ft | 124 kts | 160° |
| 2026-04-24 21:51 | -7.92660 | -34.98930 | 2464 ft | 124 kts | 160° |
| 2026-04-24 21:52 | -7.93479 | -34.98658 | 2357 ft | 123 kts | 160° |
| 2026-04-24 21:52 | -7.94305 | -34.98386 | 2243 ft | 124 kts | 160° |
| 2026-04-24 21:52 | -7.95124 | -34.98113 | 2140 ft | 123 kts | 160° |
| 2026-04-24 21:52 | -7.95941 | -34.97843 | 2028 ft | 122 kts | 159° |
| 2026-04-24 21:53 | -7.96749 | -34.97559 | 1909 ft | 123 kts | 160° |
| 2026-04-24 21:53 | -7.97572 | -34.97277 | 1799 ft | 123 kts | 160° |
| 2026-04-24 21:53 | -7.98384 | -34.97005 | 1716 ft | 122 kts | 161° |
| 2026-04-24 21:53 | -7.99173 | -34.96745 | 1696 ft | 119 kts | 160° |
| 2026-04-24 21:54 | -7.99964 | -34.96482 | 1682 ft | 119 kts | 160° |
| 2026-04-24 21:54 | -8.00758 | -34.96220 | 1680 ft | 119 kts | 161° |
| 2026-04-24 21:54 | -8.01546 | -34.95962 | 1669 ft | 119 kts | 161° |
| 2026-04-24 21:54 | -8.02346 | -34.95699 | 1655 ft | 119 kts | 160° |
| 2026-04-24 21:55 | -8.03140 | -34.95438 | 1639 ft | 119 kts | 161° |
| 2026-04-24 21:55 | -8.03940 | -34.95174 | 1526 ft | 124 kts | 161° |
| 2026-04-24 21:55 | -8.04778 | -34.94898 | 1420 ft | 125 kts | 161° |
| 2026-04-24 21:55 | -8.05614 | -34.94622 | 1302 ft | 126 kts | 161° |
| 2026-04-24 21:56 | -8.06452 | -34.94349 | 1178 ft | 127 kts | 162° |
| 2026-04-24 21:56 | -8.07305 | -34.94051 | 961 ft | 126 kts | 161° |
| 2026-04-24 21:56 | -8.08116 | -34.93799 | 652 ft | 116 kts | 164° |
| 2026-04-24 21:56 | -8.08834 | -34.93567 | 493 ft | 101 kts | 162° |
| 2026-04-24 21:57 | -8.09469 | -34.93353 | 346 ft | 90 kts | 163° |
| 2026-04-24 21:57 | -8.10025 | -34.93176 | 249 ft | 77 kts | 165° |
| 2026-04-24 21:57 | -8.10532 | -34.93010 | 186 ft | 76 kts | 164° |
| 2026-04-24 21:57 | -8.11039 | -34.92839 | 119 ft | 76 kts | 165° |
| 2026-04-24 21:58 | -8.11477 | -34.92698 | 41 ft | 53 kts | 167° |
| 2026-04-24 21:58 | -8.11785 | -34.92601 | 40 ft | 41 kts | 162° |
| 2026-04-24 21:58 | -8.12048 | -34.92513 | 40 ft | 38 kts | 162° |
| 2026-04-24 21:58 | -8.12306 | -34.92428 | 40 ft | 39 kts | 162° |
| 2026-04-24 21:59 | -8.12565 | -34.92343 | 40 ft | 39 kts | 162° |
| 2026-04-24 21:59 | -8.12822 | -34.92258 | 40 ft | 38 kts | 161° |
| 2026-04-24 21:59 | -8.13072 | -34.92175 | 40 ft | 28 kts | 161° |
| 2026-04-24 21:59 | -8.13220 | -34.92095 | 40 ft | 21 kts | 136° |
| 2026-04-24 22:00 | -8.13310 | -34.91995 | 40 ft | 16 kts | 130° |
| 2026-04-24 22:00 | -8.13388 | -34.91922 | 40 ft | 14 kts | 154° |
| 2026-04-24 22:00 | -8.13478 | -34.91890 | 40 ft | 12 kts | 163° |
| 2026-04-24 22:00 | -8.13506 | -34.91850 | 40 ft | 9 kts | 71° |
| 2026-04-24 22:01 | -8.13496 | -34.91819 | 40 ft | 0 kts | 72° |